Time;durP1;ratioP1;P1;durP2;ratioP2;P2;SDS_P1;SDS_P2;PMS_P1;PMS_P2;Temp;Humidity;BMP_temperature;BMP_pressure;BME280_temperature;BME280_humidity;BME280_pressure;Samples;Min_cycle;Max_cycle;Signal;HPM_P1;HPM_P2
2023/04/24 00:01:07;;;;;;;1.97;0.70;;;;;;;11.37;100.00;95834.53;5055520;28;20196;-62
2023/04/24 00:03:34;;;;;;;0.50;0.50;;;;;;;11.39;100.00;95824.63;5057398;28;20200;-63
2023/04/24 00:06:02;;;;;;;0.87;0.33;;;;;;;11.41;100.00;95841.16;5051897;28;20215;-63
2023/04/24 00:08:29;;;;;;;0.67;0.67;;;;;;;11.36;100.00;95838.19;5047788;28;20560;-62
2023/04/24 00:10:55;;;;;;;0.70;0.70;;;;;;;11.30;100.00;95830.09;5049309;28;20204;-62
2023/04/24 00:13:23;;;;;;;0.60;0.40;;;;;;;11.28;100.00;95822.31;5050916;28;20210;-63
2023/04/24 00:15:51;;;;;;;1.03;0.50;;;;;;;11.21;100.00;95825.78;5047502;28;20231;-61
2023/04/24 00:18:17;;;;;;;0.57;0.57;;;;;;;11.18;100.00;95824.31;5046537;28;20632;-60
2023/04/24 00:20:44;;;;;;;0.50;0.50;;;;;;;11.21;100.00;95831.91;5049994;28;20223;-62
2023/04/24 00:23:10;;;;;;;0.63;0.57;;;;;;;11.19;100.00;95831.28;5054565;28;20257;-62
2023/04/24 00:25:38;;;;;;;0.40;0.40;;;;;;;11.17;100.00;95821.81;5053416;28;20237;-63
2023/04/24 00:28:05;;;;;;;0.40;0.40;;;;;;;11.17;100.00;95821.81;5047492;28;20219;-63
2023/04/24 00:30:32;;;;;;;0.47;0.47;;;;;;;11.22;100.00;95816.88;5049288;28;20203;-62
2023/04/24 00:32:59;;;;;;;0.57;0.57;;;;;;;11.25;100.00;95813.88;5049899;28;20230;-63
2023/04/24 00:35:26;;;;;;;0.37;0.30;;;;;;;11.22;100.00;95812.41;5049602;28;20242;-62
2023/04/24 00:37:53;;;;;;;0.67;0.40;;;;;;;11.20;100.00;95808.25;5046360;28;20196;-63
2023/04/24 00:40:44;;;;;;;0.60;0.60;;;;;;;11.22;100.00;95808.94;5047957;28;20214;-63
2023/04/24 00:43:10;;;;;;;0.50;0.30;;;;;;;11.19;100.00;95814.56;5048928;28;20191;-63
2023/04/24 00:45:38;;;;;;;0.83;0.40;;;;;;;11.13;100.00;95813.41;5049715;28;20989;-63
2023/04/24 00:48:05;;;;;;;2.57;0.30;;;;;;;11.11;100.00;95820.69;5050448;28;20211;-63
2023/04/24 00:50:32;;;;;;;1.50;0.47;;;;;;;11.08;100.00;95815.72;5052391;28;20203;-61
2023/04/24 00:53:00;;;;;;;0.20;0.20;;;;;;;11.10;100.00;95818.19;5051093;28;20203;-60
2023/04/24 00:55:26;;;;;;;0.73;0.30;;;;;;;10.99;100.00;95820.19;5050034;28;20250;-61
2023/04/24 00:57:59;;;;;;;1.40;0.40;;;;;;;11.09;100.00;95821.84;5049993;28;20237;-61
2023/04/24 01:00:26;;;;;;;0.27;0.27;;;;;;;11.04;100.00;95821.50;5045552;28;20215;-63
2023/04/24 01:02:54;;;;;;;1.40;0.30;;;;;;;11.06;100.00;95807.13;5052184;28;20239;-61
2023/04/24 01:05:21;;;;;;;0.77;0.20;;;;;;;11.03;100.00;95818.03;5089970;28;20202;-63
2023/04/24 01:07:48;;;;;;;0.03;0.03;;;;;;;11.04;100.00;95817.06;5091444;28;20201;-62
2023/04/24 01:10:16;;;;;;;0.27;0.20;;;;;;;11.08;100.00;95814.91;5090994;28;20335;-61
2023/04/24 01:12:43;;;;;;;0.30;0.30;;;;;;;11.06;100.00;95820.34;5082607;28;20206;-62
2023/04/24 01:15:10;;;;;;;0.10;0.10;;;;;;;11.11;100.00;95822.50;5083375;28;20225;-63
2023/04/24 01:17:38;;;;;;;0.50;0.30;;;;;;;11.11;100.00;95817.22;5091724;28;20206;-61
2023/04/24 01:20:08;;;;;;;0.17;0.10;;;;;;;11.12;100.00;95821.53;5090239;28;20197;-63
2023/04/24 01:22:37;;;;;;;0.23;0.23;;;;;;;11.16;100.00;95820.19;5090551;28;20202;-62
2023/04/24 01:25:05;;;;;;;0.10;0.10;;;;;;;11.16;100.00;95821.00;5091320;28;20190;-62
2023/04/24 01:27:32;;;;;;;0.10;0.10;;;;;;;11.22;100.00;95827.47;5091717;28;20241;-61
2023/04/24 01:29:58;;;;;;;0.10;0.10;;;;;;;11.17;100.00;95833.25;5091510;28;20206;-62
2023/04/24 01:32:26;;;;;;;0.20;0.20;;;;;;;11.13;100.00;95831.09;5074220;28;20597;-63
2023/04/24 01:34:53;;;;;;;0.10;0.10;;;;;;;11.15;100.00;95829.13;5065158;28;20246;-60
2023/04/24 01:37:20;;;;;;;0.20;0.20;;;;;;;11.09;100.00;95824.50;5065082;28;20203;-60
2023/04/24 01:39:48;;;;;;;0.60;0.20;;;;;;;11.09;100.00;95827.94;5064780;28;20652;-61
2023/04/24 01:42:15;;;;;;;0.20;0.13;;;;;;;11.03;100.00;95827.78;5064415;28;20199;-62
2023/04/24 01:44:42;;;;;;;0.93;0.20;;;;;;;10.96;100.00;95828.47;5065667;28;20535;-61
2023/04/24 01:47:08;;;;;;;0.20;0.20;;;;;;;10.99;100.00;95822.81;5076526;28;20198;-61
2023/04/24 01:49:35;;;;;;;0.27;0.27;;;;;;;11.01;100.00;95824.50;5090206;28;20230;-61
2023/04/24 01:52:02;;;;;;;0.13;0.10;;;;;;;11.05;100.00;95817.88;5091290;28;20206;-60
2023/04/24 01:54:28;;;;;;;0.30;0.10;;;;;;;11.09;100.00;95825.31;5078890;28;20221;-61
2023/04/24 01:56:56;;;;;;;0.30;0.30;;;;;;;11.07;100.00;95827.28;5091262;28;20547;-60
2023/04/24 01:59:24;;;;;;;0.20;0.10;;;;;;;10.97;100.00;95829.28;5090319;28;20752;-60
2023/04/24 02:01:50;;;;;;;0.13;0.10;;;;;;;10.98;100.00;95829.09;5089789;28;20264;-59
2023/04/24 02:04:17;;;;;;;0.10;0.10;;;;;;;10.89;100.00;95835.41;5089850;28;20197;-60
2023/04/24 02:06:43;;;;;;;0.30;0.30;;;;;;;10.92;100.00;95840.34;5091547;28;20209;-60
2023/04/24 02:09:10;;;;;;;0.10;0.10;;;;;;;10.98;100.00;95829.09;5089398;28;20206;-59
2023/04/24 02:11:37;;;;;;;0.50;0.13;;;;;;;10.96;100.00;95824.97;5089537;28;20638;-59
2023/04/24 02:14:04;;;;;;;0.27;0.10;;;;;;;10.92;100.00;95823.66;5089475;28;20221;-60
2023/04/24 02:16:32;;;;;;;0.00;0.00;;;;;;;10.92;100.00;95821.84;5089597;28;20225;-61
2023/04/24 02:18:58;;;;;;;0.10;0.10;;;;;;;10.83;100.00;95819.38;5091195;28;20211;-61
2023/04/24 02:21:27;;;;;;;0.33;0.33;;;;;;;10.83;100.00;95825.47;5063996;28;20211;-59
2023/04/24 02:23:53;;;;;;;0.30;0.20;;;;;;;10.82;100.00;95815.88;5063298;28;20216;-61
2023/04/24 02:26:21;;;;;;;0.03;0.03;;;;;;;10.76;100.00;95818.38;5076744;28;20198;-60
2023/04/24 02:28:48;;;;;;;0.17;0.13;;;;;;;10.79;100.00;95810.94;5087833;28;20201;-61
2023/04/24 02:31:16;;;;;;;0.23;0.20;;;;;;;10.82;100.00;95813.25;5072680;28;20210;-60
2023/04/24 02:33:42;;;;;;;0.10;0.10;;;;;;;10.64;100.00;95815.19;5086928;28;20193;-60
2023/04/24 02:36:09;;;;;;;0.10;0.10;;;;;;;10.72;100.00;95817.03;5089525;28;20258;-60
2023/04/24 02:38:35;;;;;;;0.10;0.10;;;;;;;10.67;100.00;95822.81;5087961;28;20210;-60
2023/04/24 02:41:05;;;;;;;0.10;0.10;;;;;;;10.66;100.00;95820.34;5059550;28;20202;-61
2023/04/24 02:43:32;;;;;;;0.13;0.13;;;;;;;10.56;100.00;95820.47;5080307;28;20267;-60
2023/04/24 02:45:58;;;;;;;0.17;0.07;;;;;;;10.60;100.00;95810.41;5084572;28;20304;-61
2023/04/24 02:48:26;;;;;;;0.00;0.00;;;;;;;10.61;100.00;95809.41;5092554;28;20213;-60
2023/04/24 02:50:55;;;;;;;0.20;0.20;;;;;;;10.62;100.00;95809.28;5106924;28;20206;-61
2023/04/24 02:53:22;;;;;;;0.13;0.13;;;;;;;10.63;100.00;95813.53;5109776;28;20221;-60
2023/04/24 02:55:50;;;;;;;1.33;0.10;;;;;;;10.77;100.00;95818.19;5064455;28;20245;-60
2023/04/24 02:58:17;;;;;;;0.10;0.10;;;;;;;10.81;100.00;95810.75;5062701;28;20226;-59
2023/04/24 03:00:44;;;;;;;0.00;0.00;;;;;;;10.78;100.00;95811.09;5062671;28;20647;-60
2023/04/24 03:03:10;;;;;;;0.40;0.10;;;;;;;10.78;100.00;95811.91;5065607;28;20222;-60
2023/04/24 03:05:38;;;;;;;0.87;0.10;;;;;;;10.83;100.00;95812.25;5062628;28;20509;-60
2023/04/24 03:08:04;;;;;;;0.30;0.10;;;;;;;10.87;100.00;95797.72;5088745;28;20210;-60
2023/04/24 03:10:32;;;;;;;0.23;0.20;;;;;;;10.95;100.00;95805.63;5107966;28;20300;-60
2023/04/24 03:12:58;;;;;;;0.20;0.10;;;;;;;10.89;100.00;95808.13;5109356;28;20194;-61
2023/04/24 03:15:24;;;;;;;0.37;0.10;;;;;;;10.84;100.00;95799.88;5100818;28;20230;-60
2023/04/24 03:17:52;;;;;;;0.10;0.10;;;;;;;10.83;100.00;95804.31;5089580;28;20202;-61
2023/04/24 03:20:18;;;;;;;0.10;0.10;;;;;;;10.81;100.00;95800.16;5090289;28;20202;-62
2023/04/24 03:22:48;;;;;;;0.10;0.10;;;;;;;10.77;100.00;95799.66;5088537;28;20206;-60
2023/04/24 03:25:14;;;;;;;0.10;0.10;;;;;;;10.72;100.00;95801.16;5090223;28;20194;-60
2023/04/24 03:27:41;;;;;;;0.37;0.20;;;;;;;10.75;100.00;95803.47;5089508;28;21336;-60
2023/04/24 03:30:09;;;;;;;0.10;0.10;;;;;;;10.74;100.00;95807.94;5091671;28;20237;-61
2023/04/24 03:32:40;;;;;;;0.00;0.00;;;;;;;10.66;100.00;95805.31;5088462;28;20216;-59
2023/04/24 03:35:08;;;;;;;0.07;0.07;;;;;;;10.68;100.00;95803.31;5089469;28;20226;-60
2023/04/24 03:37:34;;;;;;;0.00;0.00;;;;;;;10.75;100.00;95788.44;5092616;28;20630;-59
2023/04/24 03:40:03;;;;;;;0.10;0.10;;;;;;;10.68;100.00;95802.47;5092862;28;20649;-61
2023/04/24 03:42:29;;;;;;;0.33;0.20;;;;;;;10.69;100.00;95801.50;5089354;28;20206;-59
2023/04/24 03:44:55;;;;;;;0.20;0.10;;;;;;;10.68;100.00;95805.97;5065896;28;20199;-60
2023/04/24 03:47:23;;;;;;;0.73;0.10;;;;;;;10.62;100.00;95806.63;5066646;28;20659;-61
2023/04/24 03:49:49;;;;;;;0.10;0.10;;;;;;;10.60;100.00;95807.75;5066625;28;20293;-60
2023/04/24 03:52:16;;;;;;;0.20;0.20;;;;;;;10.62;100.00;95793.41;5066795;28;20202;-60
2023/04/24 03:54:43;;;;;;;0.47;0.10;;;;;;;10.70;100.00;95798.69;5073906;28;20536;-61
2023/04/24 03:57:13;;;;;;;0.10;0.10;;;;;;;10.75;100.00;95799.03;5093965;28;20551;-60
2023/04/24 03:59:39;;;;;;;0.87;0.10;;;;;;;10.69;100.00;95812.09;5094127;28;20258;-60
2023/04/24 04:02:07;;;;;;;0.20;0.03;;;;;;;10.68;100.00;95807.78;5092893;28;20210;-61
2023/04/24 04:04:33;;;;;;;0.27;0.27;;;;;;;10.61;100.00;95799.69;5092665;28;20630;-60
2023/04/24 04:07:01;;;;;;;0.10;0.10;;;;;;;10.56;100.00;95809.91;5093496;28;20630;-60
2023/04/24 04:09:28;;;;;;;0.20;0.20;;;;;;;10.51;100.00;95812.22;5093147;28;20216;-60
2023/04/24 04:11:55;;;;;;;0.30;0.20;;;;;;;10.54;100.00;95803.97;5093279;28;20627;-60
2023/04/24 04:14:23;;;;;;;0.10;0.10;;;;;;;10.57;100.00;95803.63;5091626;28;20210;-60
2023/04/24 04:16:50;;;;;;;0.20;0.20;;;;;;;10.56;100.00;95807.25;5048565;28;20222;-61
2023/04/24 04:19:16;;;;;;;0.10;0.10;;;;;;;10.66;100.00;95813.25;5091998;28;20194;-61
2023/04/24 04:21:45;;;;;;;0.00;0.00;;;;;;;10.58;100.00;95820.31;5094139;28;20217;-61
2023/04/24 04:24:11;;;;;;;0.97;0.97;;;;;;;10.58;100.00;95815.03;5091537;28;20299;-60
2023/04/24 04:26:38;;;;;;;0.37;0.33;;;;;;;10.52;100.00;95816.53;5093698;28;20205;-60
2023/04/24 04:29:06;;;;;;;0.20;0.20;;;;;;;10.55;100.00;95816.19;5092511;28;20205;-60
2023/04/24 04:31:34;;;;;;;0.20;0.20;;;;;;;10.49;100.00;95825.59;5092958;28;20210;-60
2023/04/24 04:34:01;;;;;;;0.57;0.30;;;;;;;10.49;100.00;95832.69;5092745;28;20210;-61
2023/04/24 04:36:29;;;;;;;0.50;0.10;;;;;;;10.51;100.00;95846.59;5057078;28;20249;-59
2023/04/24 04:38:56;;;;;;;0.10;0.10;;;;;;;10.48;100.00;95855.69;5066941;28;20309;-60
2023/04/24 04:41:22;;;;;;;0.20;0.20;;;;;;;10.44;100.00;95859.63;5086829;28;20216;-60
2023/04/24 04:43:49;;;;;;;0.20;0.20;;;;;;;10.48;100.00;95865.41;5085580;28;20263;-60
2023/04/24 04:46:16;;;;;;;0.80;0.30;;;;;;;10.48;100.00;95868.06;5085622;28;20194;-60
2023/04/24 04:48:44;;;;;;;0.50;0.50;;;;;;;10.43;100.00;95873.81;5084667;28;20202;-60
2023/04/24 04:51:10;;;;;;;0.20;0.20;;;;;;;10.54;100.00;95887.72;5085727;28;21369;-60
2023/04/24 04:53:37;;;;;;;0.20;0.20;;;;;;;10.37;100.00;95894.78;5086912;28;20233;-60
2023/04/24 04:56:03;;;;;;;0.40;0.30;;;;;;;10.39;100.00;95888.34;5086961;28;20226;-59
2023/04/24 04:58:30;;;;;;;0.27;0.20;;;;;;;10.39;100.00;95890.16;5088068;28;20209;-60
2023/04/24 05:00:57;;;;;;;0.50;0.23;;;;;;;10.37;100.00;95903.53;5087035;28;20281;-59
2023/04/24 05:03:23;;;;;;;0.67;0.30;;;;;;;10.28;100.00;95903.66;5085744;28;20199;-60
2023/04/24 05:05:51;;;;;;;0.50;0.30;;;;;;;10.29;100.00;95905.31;5083558;28;20930;-59
2023/04/24 05:08:17;;;;;;;0.30;0.30;;;;;;;10.29;100.00;95910.59;5085201;28;20214;-60
2023/04/24 05:10:44;;;;;;;0.27;0.17;;;;;;;10.24;100.00;95913.72;5085856;28;20260;-60
2023/04/24 05:13:10;;;;;;;0.20;0.17;;;;;;;10.25;100.00;95925.09;5084676;28;20534;-59
2023/04/24 05:15:37;;;;;;;0.30;0.30;;;;;;;10.20;100.00;95917.66;5085358;28;20229;-60
2023/04/24 05:18:03;;;;;;;0.50;0.20;;;;;;;10.19;100.00;95923.09;5085201;28;20205;-59
2023/04/24 05:20:30;;;;;;;0.30;0.23;;;;;;;10.17;100.00;95933.00;5084762;28;20237;-60
2023/04/24 05:22:58;;;;;;;0.97;0.50;;;;;;;10.17;100.00;95938.28;5084758;28;20199;-60
2023/04/24 05:25:24;;;;;;;0.20;0.20;;;;;;;10.09;100.00;95941.69;5085006;28;20201;-59
2023/04/24 05:27:51;;;;;;;1.30;0.40;;;;;;;10.06;100.00;95947.25;5094217;28;20219;-60
2023/04/24 05:30:17;;;;;;;0.50;0.43;;;;;;;10.06;100.00;95951.75;5109347;28;20196;-61
2023/04/24 05:32:44;;;;;;;0.50;0.50;;;;;;;9.90;100.00;95939.25;5111503;28;20202;-61
2023/04/24 05:35:11;;;;;;;0.63;0.30;;;;;;;9.92;100.00;95948.69;5085923;28;20230;-60
2023/04/24 05:37:37;;;;;;;0.30;0.30;;;;;;;9.97;100.00;95948.22;5084314;28;20230;-60
2023/04/24 05:40:06;;;;;;;0.33;0.33;;;;;;;9.92;100.00;95959.25;5086409;28;20206;-60
2023/04/24 05:42:33;;;;;;;0.40;0.40;;;;;;;9.90;100.00;95957.75;5084782;28;20220;-61
2023/04/24 05:44:59;;;;;;;0.50;0.50;;;;;;;9.93;100.00;95952.97;5085974;28;20207;-60
2023/04/24 05:47:26;;;;;;;0.50;0.40;;;;;;;9.95;100.00;95950.19;5086001;28;20202;-61
2023/04/24 05:49:54;;;;;;;0.50;0.50;;;;;;;9.98;100.00;95958.63;5084930;28;20202;-59
2023/04/24 05:52:20;;;;;;;0.63;0.63;;;;;;;10.12;100.00;95962.50;5084969;28;20584;-60
2023/04/24 05:54:47;;;;;;;1.03;0.77;;;;;;;10.08;100.00;95965.63;5085485;28;20206;-59
2023/04/24 05:57:15;;;;;;;0.63;0.63;;;;;;;10.07;100.00;95967.41;5084632;28;20223;-59
2023/04/24 05:59:41;;;;;;;0.50;0.50;;;;;;;10.11;100.00;95970.56;5084797;28;20217;-59
2023/04/24 06:02:08;;;;;;;0.97;0.40;;;;;;;10.07;100.00;95975.34;5066836;28;20668;-60
2023/04/24 06:04:35;;;;;;;0.33;0.33;;;;;;;10.11;100.00;95981.97;5084620;28;20194;-59
2023/04/24 06:07:02;;;;;;;0.40;0.40;;;;;;;10.11;100.00;95978.50;5083643;28;20630;-59
2023/04/24 06:09:29;;;;;;;1.33;0.60;;;;;;;10.21;100.00;95981.88;5084198;28;20212;-59
2023/04/24 06:11:56;;;;;;;0.40;0.40;;;;;;;10.26;100.00;95974.34;5085417;28;20288;-59
2023/04/24 06:14:24;;;;;;;0.73;0.37;;;;;;;10.39;100.00;95972.09;5084688;28;20214;-59
2023/04/24 06:16:50;;;;;;;0.37;0.37;;;;;;;10.42;100.00;95979.69;5085116;28;20230;-57
2023/04/24 06:19:17;;;;;;;0.83;0.60;;;;;;;10.51;100.00;95973.47;5083252;28;20215;-59
2023/04/24 06:21:44;;;;;;;0.37;0.37;;;;;;;10.61;100.00;95968.88;5083958;28;20198;-59
2023/04/24 06:24:12;;;;;;;0.47;0.47;;;;;;;10.63;100.00;95974.81;5083025;28;20526;-59
2023/04/24 06:26:38;;;;;;;0.43;0.40;;;;;;;10.63;100.00;95971.38;5083281;28;20202;-59
2023/04/24 06:29:05;;;;;;;0.40;0.40;;;;;;;10.74;100.00;95982.47;5082135;28;20213;-58
2023/04/24 06:31:36;;;;;;;0.63;0.50;;;;;;;10.92;100.00;95983.19;5083633;28;20710;-60
2023/04/24 06:34:03;;;;;;;1.03;0.57;;;;;;;11.13;100.00;95980.09;5083271;28;20198;-61
2023/04/24 06:36:30;;;;;;;0.60;0.50;;;;;;;11.60;100.00;95968.91;5083379;28;20221;-59
2023/04/24 06:38:57;;;;;;;0.77;0.50;;;;;;;12.56;100.00;95975.88;5082850;28;20400;-59
2023/04/24 06:41:23;;;;;;;0.53;0.53;;;;;;;13.18;100.00;95966.13;5083767;28;20221;-59
2023/04/24 06:43:51;;;;;;;0.60;0.60;;;;;;;13.69;100.00;95964.63;5082444;28;20251;-59
2023/04/24 06:46:18;;;;;;;2.37;0.70;;;;;;;14.07;100.00;95964.59;5083109;28;20201;-59
2023/04/24 06:48:45;;;;;;;0.47;0.40;;;;;;;14.55;100.00;95966.81;5082907;28;20203;-59
2023/04/24 06:51:12;;;;;;;0.80;0.40;;;;;;;14.83;95.65;95965.13;5083268;28;20198;-59
2023/04/24 06:53:38;;;;;;;0.60;0.60;;;;;;;14.79;91.96;95971.81;5082530;28;20198;-59
2023/04/24 06:56:05;;;;;;;1.47;0.60;;;;;;;14.38;91.35;95963.47;5083210;28;20225;-60
2023/04/24 06:58:31;;;;;;;0.40;0.40;;;;;;;14.43;93.80;95973.56;5083171;28;20202;-59
2023/04/24 07:00:58;;;;;;;0.40;0.40;;;;;;;14.14;90.21;95973.50;5082936;28;20206;-58
2023/04/24 07:03:24;;;;;;;0.57;0.57;;;;;;;14.19;92.86;95981.78;5082732;28;20205;-59
2023/04/24 07:05:53;;;;;;;0.70;0.70;;;;;;;13.84;95.49;95977.94;5083232;28;20198;-59
2023/04/24 07:08:20;;;;;;;0.50;0.50;;;;;;;14.02;94.24;95980.28;5083850;28;20207;-61
2023/04/24 07:10:46;;;;;;;1.70;0.60;;;;;;;14.14;95.12;95986.81;5092449;28;20201;-60
2023/04/24 07:13:13;;;;;;;0.80;0.60;;;;;;;14.21;92.24;95983.25;5097441;28;20251;-59
2023/04/24 07:15:40;;;;;;;0.40;0.40;;;;;;;14.11;91.20;95984.50;5082106;28;20216;-61
2023/04/24 07:18:07;;;;;;;1.07;0.70;;;;;;;13.90;93.73;95983.38;5065337;28;20278;-60
2023/04/24 07:20:34;;;;;;;1.23;0.87;;;;;;;13.62;96.94;95978.78;5083470;28;20206;-59
2023/04/24 07:23:01;;;;;;;6.30;5.73;;;;;;;13.68;96.89;95983.38;5084613;28;20599;-59
2023/04/24 07:25:28;;;;;;;1.23;1.13;;;;;;;14.01;94.26;95989.25;5083848;28;20217;-60
2023/04/24 07:27:54;;;;;;;1.17;0.70;;;;;;;14.05;92.85;95985.25;5100613;28;20205;-61
2023/04/24 07:30:21;;;;;;;0.67;0.60;;;;;;;14.36;91.42;95996.59;5105271;28;20225;-60
2023/04/24 07:32:49;;;;;;;2.13;0.80;;;;;;;14.74;87.24;96003.47;5093223;28;20208;-61
2023/04/24 07:35:15;;;;;;;1.50;0.80;;;;;;;15.03;86.88;96001.81;5064221;28;20615;-60
2023/04/24 07:37:45;;;;;;;0.80;0.80;;;;;;;15.23;82.38;96011.69;5082727;28;20221;-59
2023/04/24 07:40:13;;;;;;;1.03;0.77;;;;;;;15.33;85.35;96011.41;5082239;28;20233;-60
2023/04/24 07:42:40;;;;;;;0.85;0.80;;;;;;;15.27;83.07;96020.13;5083882;28;20634;-61
2023/04/24 07:45:07;;;;;;;0.67;0.63;;;;;;;15.17;83.00;96014.25;5083752;28;20609;-60
2023/04/24 07:47:34;;;;;;;1.90;1.00;;;;;;;15.30;81.39;96003.78;5097490;28;20202;-58
2023/04/24 07:50:01;;;;;;;0.90;0.80;;;;;;;15.55;83.25;96002.47;5106603;28;20193;-59
2023/04/24 07:52:28;;;;;;;0.70;0.68;;;;;;;15.92;79.07;96007.53;5103908;28;20210;-59
2023/04/24 07:54:58;;;;;;;1.27;1.00;;;;;;;15.81;78.51;96015.22;5099333;28;20209;-58
2023/04/24 07:57:26;;;;;;;1.67;0.90;;;;;;;15.45;77.81;96024.03;5096961;28;20233;-60
2023/04/24 07:59:52;;;;;;;3.30;1.40;;;;;;;15.05;78.21;96037.91;5099006;28;20198;-60
2023/04/24 08:02:19;;;;;;;2.30;1.63;;;;;;;14.53;76.93;96056.59;5095424;28;20201;-59
2023/04/24 08:04:45;;;;;;;2.43;1.60;;;;;;;13.98;79.85;96080.00;5096478;28;20194;-59
2023/04/24 08:07:12;;;;;;;1.90;1.50;;;;;;;13.36;83.47;96091.50;5091388;28;20190;-60
2023/04/24 08:09:39;;;;;;;5.03;1.80;;;;;;;13.22;85.10;96104.69;5088739;28;20213;-60
2023/04/24 08:12:05;;;;;;;1.70;1.57;;;;;;;12.60;88.82;96104.50;5085535;28;20221;-58
2023/04/24 08:14:33;;;;;;;1.40;1.30;;;;;;;12.38;87.17;96115.81;5084855;28;20198;-60
2023/04/24 08:17:01;;;;;;;1.23;1.13;;;;;;;11.75;91.19;96112.97;5083235;28;20234;-59
2023/04/24 08:19:27;;;;;;;3.43;1.50;;;;;;;11.72;94.13;96114.13;5083478;28;20210;-60
2023/04/24 08:21:54;;;;;;;2.30;1.80;;;;;;;11.54;94.69;96116.03;5085105;28;20214;-59
2023/04/24 08:24:20;;;;;;;2.13;1.40;;;;;;;11.34;92.62;96117.28;5086717;28;20198;-59
2023/04/24 08:26:50;;;;;;;1.43;1.30;;;;;;;11.20;95.91;96117.88;5085928;28;20194;-59
2023/04/24 08:29:16;;;;;;;3.03;2.33;;;;;;;11.08;100.00;96124.47;5092898;28;20216;-59
2023/04/24 08:31:44;;;;;;;2.73;1.50;;;;;;;10.89;100.00;96129.00;5089250;28;20198;-60
2023/04/24 08:34:11;;;;;;;1.70;1.60;;;;;;;10.89;100.00;96133.47;5086141;28;20210;-60
2023/04/24 08:36:37;;;;;;;3.00;2.40;;;;;;;11.06;100.00;96131.72;5086955;28;20263;-59
2023/04/24 08:39:04;;;;;;;2.83;2.63;;;;;;;10.88;100.00;96137.91;5084714;28;20206;-58
2023/04/24 08:41:31;;;;;;;3.20;2.30;;;;;;;10.86;100.00;96128.50;5084314;28;20206;-58
2023/04/24 08:43:58;;;;;;;2.97;2.10;;;;;;;10.88;100.00;96123.84;5084190;28;20205;-59
2023/04/24 08:46:26;;;;;;;3.37;2.10;;;;;;;11.06;100.00;96134.38;5085127;28;20225;-60
2023/04/24 08:48:54;;;;;;;3.07;2.27;;;;;;;11.48;100.00;96132.53;5083874;28;20701;-59
2023/04/24 08:51:21;;;;;;;2.63;2.27;;;;;;;12.24;100.00;96132.38;5067023;28;20210;-58
2023/04/24 08:53:48;;;;;;;3.37;2.13;;;;;;;12.82;98.74;96135.63;5084908;28;20214;-58
2023/04/24 08:56:14;;;;;;;3.53;2.40;;;;;;;13.39;95.14;96140.81;5085383;28;20206;-58
2023/04/24 08:58:41;;;;;;;5.57;2.60;;;;;;;13.47;96.50;96146.06;5084605;28;20314;-58
2023/04/24 09:01:08;;;;;;;2.57;2.37;;;;;;;13.26;93.30;96143.16;5084880;28;20286;-60
2023/04/24 09:03:35;;;;;;;2.93;2.10;;;;;;;13.24;94.04;96140.69;5084458;28;20249;-58
2023/04/24 09:06:03;;;;;;;3.03;2.73;;;;;;;13.21;89.71;96149.00;5085280;28;20201;-58
2023/04/24 09:08:30;;;;;;;3.50;2.47;;;;;;;13.20;91.68;96150.00;5086206;28;20655;-58
2023/04/24 09:10:58;;;;;;;2.30;2.20;;;;;;;13.33;88.45;96136.16;5085801;28;20867;-59
2023/04/24 09:13:25;;;;;;;5.63;2.20;;;;;;;13.65;85.93;96144.00;5084861;28;20213;-58
2023/04/24 09:15:52;;;;;;;2.10;1.90;;;;;;;14.03;80.52;96130.81;5084550;28;20213;-59
2023/04/24 09:18:18;;;;;;;2.90;2.13;;;;;;;13.89;82.71;96140.34;5084669;28;20217;-57
2023/04/24 09:21:03;;;;;;;3.13;2.30;;;;;;;13.70;82.96;96141.66;5084780;28;20210;-58
2023/04/24 09:23:30;;;;;;;2.40;2.20;;;;;;;13.29;82.61;96140.16;5083692;28;20193;-59
2023/04/24 09:25:57;;;;;;;4.77;3.40;;;;;;;13.22;85.97;96150.63;5084248;28;20191;-59
2023/04/24 09:28:27;;;;;;;2.47;1.70;;;;;;;13.09;80.18;96142.41;5083390;28;20634;-58
2023/04/24 09:31:03;;;;;;;2.23;1.80;;;;;;;12.84;87.51;96144.25;5084469;28;20207;-59
2023/04/24 09:33:30;;;;;;;2.17;1.90;;;;;;;12.79;89.86;96151.88;5082988;28;20545;-59
2023/04/24 09:35:57;;;;;;;2.13;1.93;;;;;;;12.76;87.24;96151.38;5083786;28;20233;-57
2023/04/24 09:38:33;;;;;;;4.90;1.97;;;;;;;12.62;89.48;96160.03;5084274;28;20666;-59
2023/04/24 09:41:03;;;;;;;2.60;2.40;;;;;;;12.46;87.09;96155.59;5085008;28;20208;-59
2023/04/24 09:43:30;;;;;;;2.17;1.97;;;;;;;12.51;89.97;96157.72;5082532;28;20554;-57
2023/04/24 09:45:57;;;;;;;2.87;1.67;;;;;;;12.66;86.78;96146.28;5083271;28;20198;-58
2023/04/24 09:48:31;;;;;;;3.07;2.07;;;;;;;13.41;87.46;96146.75;5083650;28;20337;-59
2023/04/24 09:50:57;;;;;;;1.80;1.70;;;;;;;13.87;83.55;96151.19;5084608;28;20243;-58
2023/04/24 09:53:25;;;;;;;2.10;1.93;;;;;;;14.48;81.92;96128.16;5083098;28;20212;-57
2023/04/24 09:55:53;;;;;;;2.30;1.97;;;;;;;14.83;77.69;96135.50;5084010;28;20198;-59
2023/04/24 09:58:25;;;;;;;2.00;1.60;;;;;;;15.01;74.24;96142.28;5083518;28;20234;-58
2023/04/24 10:00:54;;;;;;;2.57;1.63;;;;;;;14.82;73.79;96135.66;5083587;28;20219;-59
2023/04/24 10:03:21;;;;;;;2.70;1.63;;;;;;;15.09;76.80;96128.91;5083831;28;20202;-58
2023/04/24 10:05:48;;;;;;;2.80;1.80;;;;;;;15.06;69.96;96132.75;5083404;28;20210;-58
2023/04/24 10:08:14;;;;;;;2.10;1.80;;;;;;;14.98;72.81;96137.34;5083615;28;20255;-58
2023/04/24 10:10:43;;;;;;;1.87;1.77;;;;;;;14.94;71.52;96121.72;5083343;28;20202;-58
2023/04/24 10:13:14;;;;;;;2.57;1.63;;;;;;;15.35;72.56;96123.91;5082010;28;20635;-58
2023/04/24 10:15:41;;;;;;;2.08;1.90;;;;;;;15.85;67.46;96104.47;5065393;28;20619;-59
2023/04/24 10:18:09;;;;;;;1.37;1.20;;;;;;;16.29;71.45;96106.97;5082830;28;20226;-59
2023/04/24 10:20:36;;;;;;;2.35;1.50;;;;;;;16.65;66.89;96126.41;5083196;28;20220;-59
2023/04/24 10:23:04;;;;;;;3.20;1.58;;;;;;;16.56;65.50;96135.56;5083346;28;20190;-59
2023/04/24 10:25:32;;;;;;;4.72;1.83;;;;;;;16.71;63.02;96138.16;5086669;28;20643;-58
2023/04/24 10:27:59;;;;;;;3.63;1.70;;;;;;;16.79;61.32;96130.81;5084140;28;20226;-59
2023/04/24 10:30:29;;;;;;;2.00;1.80;;;;;;;16.39;61.87;96136.81;5083241;28;20234;-58
2023/04/24 10:32:56;;;;;;;4.30;1.73;;;;;;;17.07;66.21;96136.19;5083004;28;20202;-59
2023/04/24 10:35:26;;;;;;;1.35;1.25;;;;;;;17.51;64.80;96141.16;5082942;28;20337;-58
2023/04/24 10:37:56;;;;;;;3.30;1.90;;;;;;;17.34;62.30;96147.84;5081642;28;20751;-59
2023/04/24 10:40:27;;;;;;;1.65;1.55;;;;;;;16.80;58.46;96151.19;5082271;28;20784;-59
2023/04/24 10:42:54;;;;;;;2.25;1.52;;;;;;;17.03;60.70;96150.94;5084487;28;20198;-60
2023/04/24 10:45:23;;;;;;;1.50;1.40;;;;;;;16.99;59.68;96140.84;5082863;28;20207;-60
2023/04/24 10:47:57;;;;;;;3.72;1.65;;;;;;;16.72;58.25;96143.28;5082739;28;20639;-59
2023/04/24 10:50:24;;;;;;;1.45;1.27;;;;;;;16.74;58.68;96127.94;5081995;28;20526;-59
2023/04/24 10:52:51;;;;;;;2.20;1.70;;;;;;;16.89;58.85;96138.50;5082263;28;20202;-62
2023/04/24 10:55:18;;;;;;;2.92;1.63;;;;;;;17.10;57.55;96137.63;5082547;28;20213;-59
2023/04/24 10:58:02;;;;;;;1.95;1.58;;;;;;;17.43;57.54;96154.66;5082086;28;20217;-60
2023/04/24 11:00:29;;;;;;;2.72;1.60;;;;;;;17.13;57.91;96147.91;5082589;28;20206;-59
2023/04/24 11:02:57;;;;;;;2.75;1.48;;;;;;;16.44;58.20;96159.25;5081853;28;20244;-60
2023/04/24 11:05:50;;;;;;;2.03;1.70;;;;;;;16.20;60.57;96164.13;5089868;28;20225;-60
2023/04/24 11:08:23;;;;;;;2.95;1.80;;;;;;;15.94;59.44;96168.16;5096342;28;20259;-61
2023/04/24 11:10:56;;;;;;;1.75;1.65;;;;;;;15.55;59.85;96169.53;5088786;28;20642;-62
2023/04/24 11:13:23;;;;;;;1.23;1.20;;;;;;;15.23;60.99;96168.84;5081516;28;20201;-60
2023/04/24 11:16:14;;;;;;;3.53;1.70;;;;;;;14.96;59.94;96161.47;5081899;28;20202;-61
2023/04/24 11:18:45;;;;;;;1.83;1.45;;;;;;;14.93;62.65;96168.00;5081666;28;20213;-61
2023/04/24 11:21:12;;;;;;;2.73;1.80;;;;;;;14.92;63.93;96169.00;5081284;28;20301;-60
2023/04/24 11:23:39;;;;;;;2.90;1.60;;;;;;;14.89;62.01;96166.69;5087426;28;20230;-60
2023/04/24 11:26:18;;;;;;;2.40;1.70;;;;;;;15.19;62.28;96166.75;5097872;28;20209;-61
2023/04/24 11:28:46;;;;;;;5.33;1.93;;;;;;;15.12;62.87;96166.66;5089443;28;20197;-60
2023/04/24 11:31:35;;;;;;;1.83;1.73;;;;;;;15.00;61.01;96175.25;5083344;28;20193;-59